Winston-Salem, NC

12:25 AM EDT en Octubre 20, 2014 (GMT -0400)
Waughtown | Change Station
CLOSE
Current Station
Estación meteorológica personal
Location: WINSTON-SALEM, NC
Altura: 853 ft
Estaciones meteorológicas cercanas

Alt 853 ft 36.06 °N, 80.24 °W | Updated 6 seconds ago

Clear
Despejado
45.0 ° F
Sensación térmica 45 ° F
N
0.0
Viento Variable Viento desde Sur
Gusts 0.0 mph

Hoy
Alta -- | Baja -- ° F
--% Posibilidad de precipitaciones
Ayer
Alta -- | Baja -- ° F
Precip. -- pul
7:32 AM 6:38 PM
Creciente menguante, 13% visible
Presión 30.14 pul
Visibilidad 10.0 Millas
Nubes Despejado
Vientos helados 45 ° F
Punto de rocío 40 ° F
Humedad 84%
Precipitaciones 0.00 pul
Espesor de la nieve No disponible.
UV 0 de una escala de 12
Polen 2.70 de una escala de 12
Ozono Buena
PM2.5 Buena
Flu Activity Sporadic
METAR KINT 200254Z AUTO 00000KT 10SM CLR 08/04 A3015 RMK AO2 SLP207 T00780039 51014

More Conditions Fewer Conditions

Presión 30.14 pul
Visibilidad 10.0 Millas
Nubes Despejado
Vientos helados 45 ° F
Punto de rocío 40 ° F
Humedad 84%
Precipitaciones 0.00 pul
Espesor de la nieve No disponible.
UV 0 de una escala de 12
Polen 2.70 de una escala de 12
Ozono Buena
PM2.5 Buena
Flu Activity Sporadic
METAR KINT 200254Z AUTO 00000KT 10SM CLR 08/04 A3015 RMK AO2 SLP207 T00780039 51014

More Conditions Fewer Conditions

10-Day Weather Forecast

Almanac

Astronomía

Oct. 20, 2014 Salida Puesta
Hora real 7:32 AM EDT 6:38 PM EDT
Crepúsculo civil 7:06 AM EDT 7:04 PM EDT
Crepúsculo náutico 6:36 AM EDT 7:34 PM EDT
Crepúsculo astronómico 6:06 AM EDT 8:04 PM EDT
Luna 4:24 AM EDT 4:55 PM EDT
Horas de luz 11h 58m
Horas de luz
11h 06m
Creciente menguante, 13% of the Moon is Illuminated
Hoy
Creciente menguante
Oct 23
Nueva
Oct 30
Cuarto creciente
Nov 6
Luna llena
Nov 14
Cuarto menguante

Extremos de hoy

Máximos del estado Bajos del estado

Community

WunderPhotos

Upload Photos

1,763,294 ¡fotos cargadas!

Nearby

Calidad del aire

  Calidad del aire Índice AQ Contaminante
Ayer Buena
OZONE
Ayer Buena
PM2.5
Real Buena
PM2.5
Real Buena
OZONE
Domingo Buena
OZONE
Domingo Buena
PM2.5
Lunes Buena
OZONE
Lunes Buena
PM2.5
Martes Buena
OZONE
Martes Buena
PM2.5
Miércoles Buena
OZONE
Miércoles Buena
PM2.5

Grosos de nieve

Estación Profundido Altura
No tenemos constancia de nieve nueva.

Actividad de terremotos

Ciudad Distance Mag. Tiempo y dato
No hay informes recientes de la actividad sísmica.
Magnitud mínima muestra es 2,5.

Temperaturas de aguas costeras

Lugar Temperatura
Sin partes meteorológicos de las estaciones

Estaciones meteorológicas cercanas